Time;durP1;ratioP1;P1;durP2;ratioP2;P2;SDS_P1;SDS_P2;PMS_P1;PMS_P2;Temp;Humidity;BMP_temperature;BMP_pressure;BME280_temperature;BME280_humidity;BME280_pressure;Samples;Min_cycle;Max_cycle;Signal;HPM_P1;HPM_P2
2023/07/12 00:00:25;;;;;;;11.48;7.18;;;;;;;22.50;76.13;94952.00;5093329;28;20247;-44
2023/07/12 00:02:52;;;;;;;10.40;6.80;;;;;;;22.22;76.38;94904.56;5100999;28;20684;-44
2023/07/12 00:05:19;;;;;;;7.15;6.45;;;;;;;22.41;76.54;94937.59;5093000;28;20221;-44
2023/07/12 00:07:47;;;;;;;8.55;6.47;;;;;;;22.36;77.19;94926.97;5092760;28;20710;-43
2023/07/12 00:10:20;;;;;;;8.80;7.22;;;;;;;22.40;77.44;94941.19;5093137;28;20508;-44
2023/07/12 00:12:46;;;;;;;8.27;6.75;;;;;;;22.33;77.38;94935.22;5092655;28;20273;-44
2023/07/12 00:15:18;;;;;;;9.70;7.22;;;;;;;22.35;77.29;94932.41;5094344;28;20568;-43
2023/07/12 00:17:46;;;;;;;10.43;6.85;;;;;;;22.34;77.57;94925.59;5107479;28;20664;-43
2023/07/12 00:20:24;;;;;;;10.57;7.65;;;;;;;22.33;77.42;94924.81;5113277;28;20683;-44
2023/07/12 00:22:52;;;;;;;7.72;6.05;;;;;;;22.29;77.74;94936.63;5112869;28;20668;-44
2023/07/12 00:25:20;;;;;;;8.52;7.35;;;;;;;22.29;77.81;94924.41;5112989;28;20598;-43
2023/07/12 00:27:47;;;;;;;11.68;7.93;;;;;;;22.27;77.49;94930.81;5113016;28;20189;-44
2023/07/12 00:30:17;;;;;;;10.52;7.68;;;;;;;22.28;77.10;94928.03;5112506;28;20716;-42
2023/07/12 00:32:47;;;;;;;11.15;7.35;;;;;;;22.30;76.87;94925.19;5112875;28;20193;-44
2023/07/12 00:35:16;;;;;;;8.55;7.68;;;;;;;22.32;76.94;94922.38;5113129;28;20598;-44
2023/07/12 00:37:43;;;;;;;10.07;7.00;;;;;;;22.20;77.41;94907.38;5112915;28;20216;-43
2023/07/12 00:40:19;;;;;;;9.60;7.50;;;;;;;22.26;77.94;94913.59;5113012;28;20196;-44
2023/07/12 00:42:48;;;;;;;7.82;7.07;;;;;;;22.29;77.04;94916.59;5112262;28;20197;-44
2023/07/12 00:45:16;;;;;;;7.80;6.80;;;;;;;22.31;77.46;94918.97;5112846;28;20656;-44
2023/07/12 00:47:44;;;;;;;9.90;7.72;;;;;;;22.29;77.71;94924.41;5112776;28;20189;-43
2023/07/12 00:50:19;;;;;;;12.02;6.75;;;;;;;22.26;77.93;94921.41;5113025;28;20209;-43
2023/07/12 00:52:46;;;;;;;9.07;7.28;;;;;;;22.22;78.30;94918.41;5112304;28;20203;-44
2023/07/12 00:55:54;;;;;;;9.00;7.10;;;;;;;22.21;78.66;94918.63;5112826;28;20189;-43
2023/07/12 00:58:22;;;;;;;9.98;7.40;;;;;;;22.12;78.61;94907.59;5112500;28;20189;-44
2023/07/12 01:00:49;;;;;;;11.32;7.60;;;;;;;22.17;78.88;94912.22;5112383;28;20189;-43
2023/07/12 01:03:19;;;;;;;9.30;7.70;;;;;;;22.15;79.28;94909.81;5112821;28;20185;-45
2023/07/12 01:05:47;;;;;;;13.48;7.38;;;;;;;22.12;79.47;94910.22;5112337;28;20220;-43
2023/07/12 01:08:16;;;;;;;8.20;7.30;;;;;;;22.08;79.62;94909.00;5112244;28;20192;-43
2023/07/12 01:10:42;;;;;;;8.38;7.20;;;;;;;22.07;80.07;94909.19;5112050;28;20668;-43
2023/07/12 01:13:10;;;;;;;9.43;7.88;;;;;;;22.01;80.40;94910.78;5112258;28;20270;-41
2023/07/12 01:15:37;;;;;;;7.90;7.10;;;;;;;21.94;80.67;94905.59;5112409;28;20193;-44
2023/07/12 01:18:05;;;;;;;11.10;7.30;;;;;;;21.94;80.94;94903.00;5111827;28;20200;-44
2023/07/12 01:20:37;;;;;;;7.88;6.95;;;;;;;21.90;81.05;94903.63;5112538;28;20196;-43
2023/07/12 01:23:05;;;;;;;12.20;7.32;;;;;;;21.90;81.56;94903.63;5111645;28;20193;-44
2023/07/12 01:25:35;;;;;;;8.52;7.28;;;;;;;21.90;81.56;94901.81;5112129;28;20213;-43
2023/07/12 01:28:02;;;;;;;9.20;6.95;;;;;;;21.89;81.49;94913.22;5111414;28;20192;-44
2023/07/12 01:30:29;;;;;;;8.63;7.05;;;;;;;21.88;81.63;94914.22;5112205;28;20260;-43
2023/07/12 01:32:56;;;;;;;9.50;7.60;;;;;;;21.86;81.63;94912.84;5111677;28;20238;-43
2023/07/12 01:35:22;;;;;;;12.23;7.53;;;;;;;21.84;81.81;94913.00;5111761;28;20640;-43
2023/07/12 01:37:49;;;;;;;7.57;6.78;;;;;;;21.82;82.11;94916.84;5111546;28;20636;-43
2023/07/12 01:40:19;;;;;;;9.50;8.18;;;;;;;21.82;82.76;94917.63;5112023;28;20235;-44
2023/07/12 01:42:46;;;;;;;8.43;7.45;;;;;;;21.75;82.51;94906.41;5093143;28;20717;-43
2023/07/12 01:45:13;;;;;;;10.65;7.68;;;;;;;21.76;82.45;94908.00;5112291;28;20231;-45
2023/07/12 01:47:40;;;;;;;9.10;7.30;;;;;;;21.72;82.29;94918.06;5111141;28;20732;-43
2023/07/12 01:50:07;;;;;;;13.88;8.30;;;;;;;21.73;81.94;94918.84;5111328;28;20257;-43
2023/07/12 01:52:34;;;;;;;9.18;7.80;;;;;;;21.71;82.18;94920.84;5110706;28;20192;-44
2023/07/12 01:55:01;;;;;;;7.97;7.20;;;;;;;21.70;82.38;94919.25;5111224;28;20188;-43
2023/07/12 01:57:29;;;;;;;7.72;6.75;;;;;;;21.67;82.52;94915.22;5111557;28;20193;-44
2023/07/12 01:59:56;;;;;;;10.82;8.27;;;;;;;21.63;82.61;94915.81;5110890;28;20580;-43
2023/07/12 02:02:23;;;;;;;8.82;7.18;;;;;;;21.59;82.58;94915.44;5111170;28;20655;-44
2023/07/12 02:04:49;;;;;;;8.85;7.95;;;;;;;21.60;82.41;94919.66;5110736;28;20217;-43
2023/07/12 02:07:16;;;;;;;9.15;7.93;;;;;;;21.11;82.64;94850.53;5111287;28;20618;-43
2023/07/12 02:10:10;;;;;;;11.35;7.97;;;;;;;21.53;82.92;94922.22;5111218;28;20677;-43
2023/07/12 02:12:39;;;;;;;8.45;7.32;;;;;;;21.51;83.08;94929.47;5111077;28;20273;-45
2023/07/12 02:15:06;;;;;;;11.10;7.60;;;;;;;21.31;83.13;94899.97;5110940;28;20740;-44
2023/07/12 02:17:33;;;;;;;9.77;7.45;;;;;;;21.51;83.28;94939.88;5110744;28;20236;-43
2023/07/12 02:20:00;;;;;;;11.63;7.40;;;;;;;21.54;83.18;94941.25;5110680;28;20276;-43
2023/07/12 02:22:31;;;;;;;8.68;6.85;;;;;;;21.52;82.76;94946.66;5110842;28;20200;-43
2023/07/12 02:24:57;;;;;;;11.75;7.32;;;;;;;21.45;82.77;94937.25;5110201;28;20221;-42
2023/07/12 02:27:25;;;;;;;7.72;6.88;;;;;;;21.37;82.79;94937.44;5110968;28;20182;-42
2023/07/12 02:29:53;;;;;;;9.48;7.85;;;;;;;21.25;82.89;94932.81;5110542;28;20228;-43
2023/07/12 02:32:20;;;;;;;7.53;6.57;;;;;;;21.30;82.97;94940.00;5110534;28;20433;-44
2023/07/12 02:34:47;;;;;;;12.98;7.47;;;;;;;21.24;83.19;94945.97;5110445;28;20644;-44
2023/07/12 02:37:14;;;;;;;10.65;7.68;;;;;;;21.14;83.19;94932.56;5110840;28;20177;-43
2023/07/12 02:39:44;;;;;;;10.07;7.82;;;;;;;21.15;83.65;94947.97;5110350;28;20245;-44
2023/07/12 02:42:12;;;;;;;15.68;8.32;;;;;;;21.16;83.48;94948.78;5110783;28;20589;-43
2023/07/12 02:44:39;;;;;;;10.70;7.80;;;;;;;21.17;83.29;94953.78;5110182;28;20695;-45
2023/07/12 02:47:09;;;;;;;15.60;7.20;;;;;;;21.17;83.40;94959.00;5110922;28;20220;-44
2023/07/12 02:49:37;;;;;;;16.10;8.32;;;;;;;20.99;83.39;94924.94;5110436;28;20201;-44
2023/07/12 02:52:04;;;;;;;8.55;7.65;;;;;;;21.18;83.47;94955.38;5110336;28;20681;-43
2023/07/12 02:54:31;;;;;;;8.75;7.57;;;;;;;21.18;83.58;94963.19;5110127;28;20663;-46
2023/07/12 02:56:58;;;;;;;9.05;8.02;;;;;;;21.15;83.73;94963.56;5110384;28;20193;-44
2023/07/12 02:59:25;;;;;;;13.10;8.45;;;;;;;21.19;83.97;94970.00;5109897;28;20189;-45
2023/07/12 03:01:52;;;;;;;10.45;8.13;;;;;;;21.21;84.39;94970.59;5110098;28;20208;-45
2023/07/12 03:04:21;;;;;;;15.65;8.93;;;;;;;21.23;84.76;94975.59;5110231;28;20203;-43
2023/07/12 03:06:48;;;;;;;11.98;8.52;;;;;;;21.15;84.88;94963.56;5109903;28;20227;-44
2023/07/12 03:09:17;;;;;;;12.63;8.77;;;;;;;21.16;84.88;94969.59;5110787;28;20210;-44
2023/07/12 03:11:45;;;;;;;13.77;9.43;;;;;;;21.13;85.15;94964.78;5110038;28;20216;-44
2023/07/12 03:14:12;;;;;;;13.75;9.07;;;;;;;21.15;85.18;94966.16;5102735;28;20201;-42
2023/07/12 03:16:39;;;;;;;10.40;8.20;;;;;;;21.15;84.91;94971.38;5089976;28;20640;-42
2023/07/12 03:19:06;;;;;;;11.40;8.63;;;;;;;21.14;84.98;94966.38;5089954;28;20193;-43
2023/07/12 03:21:34;;;;;;;15.50;9.43;;;;;;;21.19;85.34;94975.19;5089539;28;20189;-44
2023/07/12 03:24:01;;;;;;;19.50;9.13;;;;;;;21.23;85.08;94975.59;5089989;28;20182;-44
2023/07/12 03:26:28;;;;;;;15.32;8.63;;;;;;;21.23;85.45;94980.81;5093553;28;20707;-44
2023/07/12 03:28:55;;;;;;;17.85;9.10;;;;;;;21.24;85.10;94987.59;5109844;28;20278;-43
2023/07/12 03:31:23;;;;;;;12.82;9.13;;;;;;;21.21;85.10;94977.63;5101991;28;20182;-44
2023/07/12 03:33:50;;;;;;;16.17;9.70;;;;;;;21.22;85.35;94974.81;5089514;28;20190;-44
2023/07/12 03:36:17;;;;;;;10.80;8.82;;;;;;;21.25;85.17;94977.03;5089348;28;20197;-43
2023/07/12 03:38:45;;;;;;;10.70;8.43;;;;;;;21.31;85.13;94988.44;5090228;28;20822;-45
2023/07/12 03:41:16;;;;;;;13.25;9.98;;;;;;;21.22;84.89;94961.00;5097613;28;20189;-45
2023/07/12 03:43:43;;;;;;;13.95;9.20;;;;;;;21.44;84.71;95001.50;5109954;28;20284;-44
2023/07/12 03:46:10;;;;;;;9.93;8.68;;;;;;;21.48;84.17;95005.31;5109948;28;20212;-44
2023/07/12 03:48:36;;;;;;;15.25;9.13;;;;;;;21.56;83.96;94998.31;5108807;28;20181;-43
2023/07/12 03:51:03;;;;;;;12.98;9.25;;;;;;;21.60;83.64;95004.75;5089778;28;20186;-43
2023/07/12 03:53:30;;;;;;;14.10;9.48;;;;;;;21.38;83.72;94975.47;5089657;28;20186;-44
2023/07/12 03:56:01;;;;;;;12.00;8.85;;;;;;;21.62;83.45;95008.72;5097533;28;20181;-45
2023/07/12 03:58:31;;;;;;;11.05;9.27;;;;;;;21.70;83.75;95020.75;5109628;28;20232;-44
2023/07/12 04:01:01;;;;;;;13.93;9.05;;;;;;;21.72;83.44;95018.78;5110320;28;20185;-44
2023/07/12 04:03:28;;;;;;;11.32;9.40;;;;;;;21.67;83.46;95006.34;5109649;28;20257;-43
2023/07/12 04:05:55;;;;;;;9.73;8.38;;;;;;;21.71;83.55;95006.75;5109794;28;20281;-45
2023/07/12 04:08:22;;;;;;;14.52;9.52;;;;;;;21.73;83.31;94992.53;5109325;28;20656;-44
2023/07/12 04:10:51;;;;;;;17.08;8.88;;;;;;;21.74;82.90;94982.94;5100370;28;20190;-45
2023/07/12 04:13:20;;;;;;;10.32;8.93;;;;;;;21.86;82.96;94998.75;5089378;28;20278;-44
2023/07/12 04:15:47;;;;;;;14.13;9.27;;;;;;;21.93;82.90;95004.75;5089487;28;20213;-46
2023/07/12 04:18:13;;;;;;;13.95;9.98;;;;;;;21.98;82.48;94992.75;5093017;28;20198;-45
2023/07/12 04:20:40;;;;;;;19.40;9.90;;;;;;;22.05;81.48;94992.72;5092852;28;20247;-42
2023/07/12 04:23:08;;;;;;;24.58;9.05;;;;;;;21.63;81.67;94918.44;5092611;28;20190;-42
2023/07/12 04:25:35;;;;;;;14.95;10.13;;;;;;;22.14;81.34;94991.56;5103936;28;20201;-45
2023/07/12 04:28:01;;;;;;;13.32;9.65;;;;;;;22.18;80.84;94991.97;5113058;28;20189;-44
2023/07/12 04:30:30;;;;;;;12.98;8.88;;;;;;;22.30;80.48;94995.56;5112432;28;20181;-44
2023/07/12 04:32:56;;;;;;;12.52;8.98;;;;;;;22.39;80.11;94993.53;5112967;28;20281;-44
2023/07/12 04:35:24;;;;;;;13.10;9.45;;;;;;;22.41;79.87;94992.34;5112938;28;20192;-43
2023/07/12 04:37:52;;;;;;;13.13;9.63;;;;;;;22.49;79.24;94996.50;5112866;28;20197;-44
2023/07/12 04:40:19;;;;;;;18.83;10.25;;;;;;;22.59;78.76;94993.50;5100910;28;20232;-44
2023/07/12 04:42:46;;;;;;;10.95;9.80;;;;;;;22.65;78.62;94997.88;5092541;28;20301;-43
2023/07/12 04:45:14;;;;;;;9.20;8.20;;;;;;;22.74;78.28;95007.09;5092139;28;20194;-45
2023/07/12 04:47:43;;;;;;;14.55;8.20;;;;;;;22.87;78.00;95006.25;5092513;28;20213;-44
2023/07/12 04:50:11;;;;;;;12.93;9.43;;;;;;;22.94;78.11;95009.66;5093250;28;20232;-44
2023/07/12 04:52:39;;;;;;;12.07;9.40;;;;;;;22.98;77.45;95010.84;5110175;28;20196;-44
2023/07/12 04:55:21;;;;;;;11.75;9.70;;;;;;;22.83;77.20;94987.59;5100190;28;20190;-43
2023/07/12 04:57:47;;;;;;;17.20;9.32;;;;;;;23.08;77.25;95015.63;5104592;28;20197;-43
2023/07/12 05:00:15;;;;;;;11.50;8.80;;;;;;;22.91;77.08;94990.00;5110659;28;20177;-43
2023/07/12 05:02:43;;;;;;;17.52;9.80;;;;;;;23.14;76.96;95012.97;5112412;28;20189;-43
2023/07/12 05:05:12;;;;;;;18.33;10.18;;;;;;;22.99;76.54;94976.72;5112452;28;20188;-42
2023/07/12 05:07:39;;;;;;;15.38;10.20;;;;;;;23.27;76.06;94999.06;5112176;28;20329;-44
2023/07/12 05:10:07;;;;;;;12.77;10.60;;;;;;;23.31;75.89;95000.25;5098055;28;20193;-44
2023/07/12 05:12:34;;;;;;;16.05;11.25;;;;;;;23.42;75.68;94998.81;5091984;28;20217;-43
2023/07/12 05:15:01;;;;;;;13.70;10.57;;;;;;;23.60;74.89;94992.88;5091529;28;20560;-42
2023/07/12 05:17:28;;;;;;;15.98;11.30;;;;;;;23.77;74.57;94989.56;5092001;28;20212;-43
2023/07/12 05:19:56;;;;;;;12.35;10.05;;;;;;;24.03;73.78;94990.38;5091699;28;20193;-44
2023/07/12 05:22:23;;;;;;;18.58;10.50;;;;;;;24.38;72.51;94971.59;5091284;28;20238;-44
2023/07/12 05:24:50;;;;;;;17.73;9.18;;;;;;;25.03;70.76;94998.81;5105347;28;20222;-45
2023/07/12 05:27:17;;;;;;;15.90;10.45;;;;;;;25.62;68.01;95004.34;5111394;28;20224;-44
2023/07/12 05:29:44;;;;;;;14.30;10.55;;;;;;;26.06;65.94;95010.13;5111122;28;20248;-44
2023/07/12 05:32:10;;;;;;;12.63;10.32;;;;;;;26.36;63.96;94996.94;5111984;28;20211;-44
2023/07/12 05:34:37;;;;;;;11.43;9.27;;;;;;;26.62;63.84;95002.78;5112435;28;20212;-43
2023/07/12 05:37:06;;;;;;;10.90;8.63;;;;;;;26.98;63.31;94999.03;5097200;28;20193;-46
2023/07/12 05:39:34;;;;;;;11.98;8.93;;;;;;;27.48;61.94;94998.44;5106305;28;20193;-43
2023/07/12 05:42:00;;;;;;;14.73;9.73;;;;;;;27.97;59.27;95012.72;5112074;28;20185;-45
2023/07/12 05:44:27;;;;;;;10.18;8.82;;;;;;;28.25;59.09;95013.69;5110425;28;20192;-44
2023/07/12 05:46:54;;;;;;;16.45;9.63;;;;;;;28.46;58.40;94999.03;5104801;28;20221;-43
2023/07/12 05:49:21;;;;;;;16.40;9.73;;;;;;;28.75;57.09;94997.03;5110862;28;20687;-43
2023/07/12 05:51:48;;;;;;;19.42;9.57;;;;;;;29.14;55.86;95010.97;5108215;28;20305;-43
2023/07/12 05:54:17;;;;;;;11.73;9.05;;;;;;;29.54;54.26;95015.09;5109954;28;20702;-42
2023/07/12 05:56:44;;;;;;;13.65;9.43;;;;;;;29.65;53.81;95019.44;5110586;28;20582;-43
2023/07/12 05:59:11;;;;;;;15.80;8.68;;;;;;;29.79;53.37;95030.38;5110769;28;20253;-43
2023/07/12 06:01:38;;;;;;;15.00;8.95;;;;;;;29.94;53.38;95025.25;5106555;28;20238;-43
2023/07/12 06:04:08;;;;;;;12.63;8.27;;;;;;;30.00;51.48;95018.16;5105223;28;20184;-43
2023/07/12 06:06:35;;;;;;;12.45;9.20;;;;;;;30.03;51.11;95036.16;5107430;28;20208;-44
2023/07/12 06:09:02;;;;;;;12.95;8.60;;;;;;;29.88;52.21;95028.91;5110338;28;20193;-43
2023/07/12 06:11:30;;;;;;;10.50;8.23;;;;;;;30.17;51.20;95033.91;5110664;28;20189;-43
2023/07/12 06:13:57;;;;;;;18.13;8.35;;;;;;;30.34;51.21;95039.84;5110178;28;20222;-42
2023/07/12 06:16:24;;;;;;;10.02;8.50;;;;;;;30.35;50.76;95040.63;5110238;28;20200;-43
2023/07/12 06:18:51;;;;;;;11.60;8.88;;;;;;;30.38;49.97;95030.38;5109306;28;20193;-43
2023/07/12 06:21:17;;;;;;;13.23;8.45;;;;;;;30.51;50.48;95036.25;5107583;28;20205;-43
2023/07/12 06:23:44;;;;;;;13.88;9.95;;;;;;;30.76;50.42;95038.31;5107207;28;20280;-43
2023/07/12 06:26:11;;;;;;;9.10;8.02;;;;;;;30.95;50.68;95028.88;5106887;28;20360;-43
2023/07/12 06:28:39;;;;;;;13.48;9.75;;;;;;;31.19;49.41;95024.75;5107644;28;20231;-43
2023/07/12 06:31:06;;;;;;;13.05;9.32;;;;;;;31.45;48.42;95016.94;5106350;28;20185;-43
2023/07/12 06:33:33;;;;;;;15.35;8.38;;;;;;;31.72;47.68;95019.38;5107700;28;20647;-44
2023/07/12 06:36:01;;;;;;;10.95;8.35;;;;;;;32.13;47.86;95028.19;5106707;28;20212;-44
2023/07/12 06:38:28;;;;;;;15.32;9.07;;;;;;;32.27;46.64;95023.13;5102002;28;20188;-44
2023/07/12 06:40:55;;;;;;;11.45;8.07;;;;;;;32.49;46.43;95027.38;5102562;28;20177;-45
2023/07/12 06:43:22;;;;;;;12.40;9.02;;;;;;;32.64;45.70;95030.81;5107314;28;20204;-43
2023/07/12 06:45:50;;;;;;;15.25;8.15;;;;;;;32.74;45.45;95031.84;5106311;28;20204;-45
2023/07/12 06:48:17;;;;;;;9.18;7.93;;;;;;;32.81;45.06;95019.88;5103451;28;20228;-45
2023/07/12 06:50:44;;;;;;;11.25;8.32;;;;;;;32.98;44.34;95014.28;5107394;28;20196;-43
2023/07/12 06:53:12;;;;;;;12.25;8.45;;;;;;;33.09;44.10;95012.41;5107130;28;20644;-44
2023/07/12 06:55:43;;;;;;;14.82;9.55;;;;;;;33.17;44.32;95012.63;5107047;28;20306;-43
2023/07/12 06:58:10;;;;;;;15.98;8.18;;;;;;;33.40;43.70;95013.06;5107367;28;20698;-43
2023/07/12 07:00:40;;;;;;;12.05;8.40;;;;;;;33.64;42.81;95014.00;5104571;28;20209;-44
2023/07/12 07:03:10;;;;;;;13.13;7.82;;;;;;;33.33;43.69;95016.00;5108816;28;20639;-44
2023/07/12 07:05:38;;;;;;;13.43;8.00;;;;;;;33.22;43.38;95017.91;5110107;28;20250;-43
2023/07/12 07:08:06;;;;;;;10.73;7.80;;;;;;;33.21;44.20;95019.00;5110197;28;20230;-45
2023/07/12 07:10:33;;;;;;;12.07;7.53;;;;;;;33.43;43.92;95023.91;5109429;28;20648;-44
2023/07/12 07:13:00;;;;;;;9.38;7.13;;;;;;;33.62;42.88;95023.31;5109644;28;20804;-44
2023/07/12 07:15:27;;;;;;;12.27;7.15;;;;;;;33.77;42.42;95030.41;5110073;28;20213;-44
2023/07/12 07:17:59;;;;;;;8.48;7.00;;;;;;;33.95;42.34;95045.66;5109341;28;20195;-45
2023/07/12 07:20:29;;;;;;;21.17;8.77;;;;;;;34.07;41.60;95045.31;5109691;28;20214;-48
2023/07/12 07:22:56;;;;;;;11.70;7.45;;;;;;;33.87;42.13;95041.72;5106169;28;20194;-43
2023/07/12 07:25:24;;;;;;;12.93;8.05;;;;;;;33.92;42.10;95044.34;5108832;28;20271;-44
2023/07/12 07:27:51;;;;;;;10.30;8.57;;;;;;;34.07;42.26;95045.31;5109608;28;20230;-45
2023/07/12 07:30:18;;;;;;;14.65;9.02;;;;;;;33.99;41.79;95037.97;5107773;28;20221;-45
2023/07/12 07:32:45;;;;;;;11.43;7.70;;;;;;;33.68;42.41;94991.16;5109188;28;20663;-43
2023/07/12 07:35:12;;;;;;;13.43;7.38;;;;;;;34.17;42.32;95031.97;5108440;28;20188;-44
2023/07/12 07:37:42;;;;;;;11.00;7.80;;;;;;;34.34;41.95;95019.09;5108051;28;20245;-44
2023/07/12 07:40:10;;;;;;;11.60;7.72;;;;;;;34.44;41.48;95020.84;5107588;28;20204;-43
2023/07/12 07:42:36;;;;;;;9.05;7.65;;;;;;;34.45;41.52;95020.56;5108698;28;20242;-45
2023/07/12 07:45:03;;;;;;;9.13;8.07;;;;;;;34.48;41.31;95013.13;5109236;28;20656;-44
2023/07/12 07:47:30;;;;;;;10.73;7.55;;;;;;;34.73;41.09;95026.19;5108985;28;20231;-44
2023/07/12 07:49:57;;;;;;;13.85;8.98;;;;;;;34.84;40.95;95038.25;5109146;28;20200;-45
2023/07/12 07:52:24;;;;;;;14.60;8.55;;;;;;;34.84;41.01;95029.50;5111773;28;20205;-44
2023/07/12 07:54:53;;;;;;;14.63;8.77;;;;;;;34.71;41.11;95030.97;5108463;28;20186;-45
2023/07/12 07:57:20;;;;;;;11.85;8.02;;;;;;;34.64;41.14;95030.53;5113140;28;20657;-44
2023/07/12 07:59:46;;;;;;;12.43;8.60;;;;;;;34.60;41.36;95024.19;5112806;28;20200;-43
2023/07/12 08:02:13;;;;;;;11.95;9.13;;;;;;;34.65;41.62;95027.56;5113282;28;20185;-44
2023/07/12 08:04:40;;;;;;;23.45;9.25;;;;;;;34.78;41.48;95030.66;5112236;28;20190;-44
2023/07/12 08:07:08;;;;;;;10.73;8.40;;;;;;;34.89;40.97;95019.63;5113000;28;20209;-44
2023/07/12 08:09:35;;;;;;;12.43;8.00;;;;;;;34.94;41.20;95016.91;5110989;28;20232;-44
2023/07/12 08:12:05;;;;;;;10.80;9.45;;;;;;;35.03;40.95;95030.41;5112588;28;20242;-43
2023/07/12 08:14:32;;;;;;;11.85;9.32;;;;;;;34.99;40.86;95032.03;5112021;28;20197;-44
2023/07/12 08:16:58;;;;;;;14.30;8.30;;;;;;;35.00;41.46;95028.28;5110811;28;20189;-43
2023/07/12 08:19:25;;;;;;;10.70;7.72;;;;;;;35.08;41.11;95038.31;5109277;28;20185;-44
2023/07/12 08:21:52;;;;;;;17.20;9.48;;;;;;;35.08;41.17;95019.69;5112560;28;20679;-44
2023/07/12 08:24:19;;;;;;;13.38;8.55;;;;;;;35.17;41.07;95031.28;5112616;28;20185;-45
2023/07/12 08:26:45;;;;;;;16.65;9.02;;;;;;;35.11;41.09;95035.09;5111692;28;20193;-43
2023/07/12 08:29:14;;;;;;;16.17;9.27;;;;;;;34.97;40.82;95026.19;5111811;28;20232;-44
2023/07/12 08:31:40;;;;;;;19.75;9.65;;;;;;;34.84;41.48;95030.28;5112153;28;20534;-43
2023/07/12 08:34:07;;;;;;;12.50;8.45;;;;;;;34.77;41.76;95013.13;5112449;28;20663;-44
2023/07/12 08:36:34;;;;;;;13.95;8.10;;;;;;;34.80;41.35;95031.94;5112301;28;20184;-44
2023/07/12 08:39:01;;;;;;;19.83;9.73;;;;;;;34.85;41.71;95031.09;5112473;28;20560;-44
2023/07/12 08:41:29;;;;;;;10.35;8.10;;;;;;;34.72;41.06;95029.91;5112147;28;20204;-44
2023/07/12 08:43:56;;;;;;;15.85;8.60;;;;;;;34.59;41.01;94999.50;5112172;28;20258;-44
2023/07/12 08:46:30;;;;;;;13.90;8.93;;;;;;;34.83;41.46;95034.03;5110917;28;20197;-43
2023/07/12 08:49:02;;;;;;;11.88;8.15;;;;;;;34.99;41.64;95025.94;5112162;28;20208;-44
2023/07/12 08:51:30;;;;;;;15.35;9.02;;;;;;;34.99;41.62;95028.59;5111677;28;20193;-43
2023/07/12 08:53:58;;;;;;;13.38;8.27;;;;;;;34.97;42.25;95026.19;5108824;28;20617;-43
2023/07/12 08:56:26;;;;;;;16.25;9.05;;;;;;;34.69;42.47;95020.63;5109185;28;20204;-43
2023/07/12 08:58:54;;;;;;;21.20;9.32;;;;;;;34.43;43.28;95019.25;5108695;28;20703;-44
2023/07/12 09:01:43;;;;;;;17.77;8.30;;;;;;;34.24;43.66;95003.22;5111578;28;20250;-44
2023/07/12 09:04:22;;;;;;;16.25;8.00;;;;;;;34.33;44.04;95022.03;5109034;28;20288;-44
2023/07/12 09:06:50;;;;;;;10.07;8.70;;;;;;;34.17;44.28;95008.09;5111154;28;20662;-44
2023/07/12 09:09:18;;;;;;;13.73;7.80;;;;;;;34.17;44.42;95010.72;5108883;28;20204;-43
2023/07/12 09:11:45;;;;;;;19.65;7.75;;;;;;;34.20;44.42;95003.00;5108315;28;20596;-45
2023/07/12 09:14:17;;;;;;;14.27;8.73;;;;;;;34.31;44.33;95001.03;5111286;28;20239;-44
2023/07/12 09:16:48;;;;;;;12.20;7.70;;;;;;;34.35;44.37;94995.97;5104819;28;20280;-45
2023/07/12 09:19:19;;;;;;;13.27;7.70;;;;;;;34.43;44.14;94987.38;5110782;28;20192;-44
2023/07/12 09:21:50;;;;;;;12.50;8.23;;;;;;;34.37;44.54;94980.53;5110513;28;20294;-45
2023/07/12 09:24:22;;;;;;;11.98;8.05;;;;;;;34.45;44.19;94986.03;5106560;28;20304;-44
2023/07/12 09:26:50;;;;;;;10.48;7.35;;;;;;;34.49;44.14;94985.50;5105386;28;20210;-44
2023/07/12 09:29:21;;;;;;;12.07;7.50;;;;;;;34.58;43.47;94979.28;5107674;28;20995;-43
2023/07/12 09:31:51;;;;;;;11.65;7.18;;;;;;;34.77;43.39;94986.53;5107198;28;21001;-44
2023/07/12 09:34:27;;;;;;;17.50;7.22;;;;;;;34.82;43.69;94984.63;5108490;28;20572;-45
2023/07/12 09:37:01;;;;;;;11.15;7.95;;;;;;;34.90;43.27;94977.88;5106864;28;20241;-46
2023/07/12 09:39:28;;;;;;;11.52;7.13;;;;;;;34.91;43.37;94963.50;5107521;28;20660;-45
2023/07/12 09:41:57;;;;;;;9.50;5.32;;;;;;;35.04;40.89;94972.69;5106305;28;20185;-43
2023/07/12 09:44:25;;;;;;;11.10;5.60;;;;;;;35.24;39.59;94961.00;5105046;28;20246;-45
2023/07/12 09:47:02;;;;;;;9.77;6.07;;;;;;;35.30;39.02;94960.63;5106862;28;20201;-44
2023/07/12 09:49:39;;;;;;;9.00;6.07;;;;;;;35.36;40.02;94969.31;5087180;28;20208;-43
2023/07/12 09:52:15;;;;;;;11.70;6.05;;;;;;;35.50;38.82;94966.78;5110718;28;20660;-43
2023/07/12 09:54:51;;;;;;;10.05;5.65;;;;;;;35.52;38.80;94946.00;5110334;28;20258;-44
2023/07/12 09:57:32;;;;;;;6.95;6.20;;;;;;;35.81;38.24;94967.91;5108902;28;20255;-44
2023/07/12 10:00:03;;;;;;;6.72;5.32;;;;;;;35.82;37.22;94968.69;5109812;28;20205;-45
2023/07/12 10:02:40;;;;;;;11.80;5.55;;;;;;;35.68;36.92;94968.66;5108434;28;20648;-44
2023/07/12 10:05:12;;;;;;;7.25;5.28;;;;;;;35.58;37.43;94964.28;5109995;28;20185;-43
2023/07/12 10:07:56;;;;;;;6.35;4.85;;;;;;;35.66;38.24;94962.81;5110073;28;20213;-44
2023/07/12 10:10:30;;;;;;;6.75;5.45;;;;;;;35.77;37.72;94955.47;5109706;28;20184;-45
2023/07/12 10:13:12;;;;;;;8.30;5.20;;;;;;;35.63;37.79;94952.75;5107738;28;20272;-44
2023/07/12 10:15:40;;;;;;;6.70;5.57;;;;;;;35.57;38.50;94951.25;5109676;28;20196;-44
2023/07/12 10:18:16;;;;;;;12.85;6.25;;;;;;;35.59;37.49;94939.25;5110113;28;20185;-44
2023/07/12 10:20:43;;;;;;;6.22;5.55;;;;;;;35.58;37.69;94947.50;5108153;28;20184;-45
2023/07/12 10:23:11;;;;;;;8.13;5.95;;;;;;;35.58;37.75;94953.63;5104594;28;20259;-44
2023/07/12 10:25:44;;;;;;;9.63;6.18;;;;;;;35.57;38.06;94952.03;5106146;28;20189;-44
2023/07/12 10:28:21;;;;;;;9.38;6.00;;;;;;;35.63;38.96;94939.47;5109244;28;20329;-44
2023/07/12 10:30:50;;;;;;;9.73;6.07;;;;;;;35.70;38.95;94950.50;5109598;28;20553;-44
2023/07/12 10:33:23;;;;;;;10.50;5.45;;;;;;;35.66;38.28;94946.84;5107049;28;20201;-44
2023/07/12 10:35:54;;;;;;;9.13;6.13;;;;;;;35.69;37.79;94947.06;5110292;28;20229;-45
2023/07/12 10:38:22;;;;;;;9.40;5.45;;;;;;;35.68;38.69;94947.34;5109682;28;20189;-44
2023/07/12 10:40:53;;;;;;;7.97;5.53;;;;;;;35.75;38.47;94942.44;5109482;28;20685;-45
2023/07/12 10:43:27;;;;;;;9.98;5.50;;;;;;;35.67;38.03;94925.28;5109593;28;20318;-43
2023/07/12 10:46:02;;;;;;;6.93;5.70;;;;;;;35.72;38.10;94943.03;5107024;28;20197;-45
2023/07/12 10:48:31;;;;;;;9.05;5.55;;;;;;;35.69;38.20;94938.28;5107462;28;20231;-44
2023/07/12 10:51:19;;;;;;;7.50;6.18;;;;;;;35.69;37.74;94939.06;5109910;28;20188;-44
2023/07/12 10:53:51;;;;;;;6.15;5.18;;;;;;;35.52;37.94;94938.00;5108281;28;20246;-42
2023/07/12 10:56:19;;;;;;;5.65;5.13;;;;;;;35.48;39.18;94934.34;5109236;28;20196;-43
2023/07/12 10:58:52;;;;;;;8.00;6.30;;;;;;;35.53;39.09;94935.06;5109148;28;20196;-45
2023/07/12 11:01:53;;;;;;;6.57;5.38;;;;;;;35.60;38.73;94926.72;5109456;28;20273;-44
2023/07/12 11:04:35;;;;;;;7.50;5.50;;;;;;;35.59;37.72;94925.16;5107685;28;20180;-44
2023/07/12 11:07:04;;;;;;;7.50;5.38;;;;;;;35.30;38.13;94901.34;5109022;28;20189;-44
2023/07/12 11:10:01;;;;;;;8.27;5.22;;;;;;;35.46;37.36;94928.50;5108932;28;20255;-44
2023/07/12 11:12:38;;;;;;;11.85;5.45;;;;;;;35.42;37.42;94925.63;5091814;28;20253;-44
2023/07/12 11:15:22;;;;;;;6.63;4.93;;;;;;;35.39;37.84;94924.31;5107202;28;20304;-44
2023/07/12 11:17:53;;;;;;;8.25;5.10;;;;;;;35.33;37.75;94914.84;5107569;28;20204;-44
2023/07/12 11:20:26;;;;;;;7.22;6.28;;;;;;;35.28;38.54;94922.09;5108894;28;20196;-43
2023/07/12 11:22:59;;;;;;;7.40;5.63;;;;;;;35.23;38.68;94909.66;5109107;28;20195;-44
2023/07/12 11:25:38;;;;;;;12.52;6.15;;;;;;;35.22;39.95;94912.63;5108595;28;20200;-44
2023/07/12 11:28:25;;;;;;;10.27;5.72;;;;;;;35.22;39.81;94910.75;5110967;28;20220;-43
2023/07/12 11:31:13;;;;;;;6.38;5.18;;;;;;;35.19;39.67;94906.81;5111472;28;20204;-44
2023/07/12 11:33:42;;;;;;;8.18;5.80;;;;;;;35.04;39.46;94871.66;5111710;28;20579;-44
2023/07/12 11:36:19;;;;;;;6.75;5.63;;;;;;;35.23;39.70;94901.69;5113575;28;20580;-45